sensor_id;sensor_type;location;lat;lon;timestamp;temperature;humidity
10312;DHT22;5201;48.776;9.128;2023-08-12T00:01:09;22.70;99.90
10312;DHT22;5201;48.776;9.128;2023-08-12T00:03:35;22.70;99.90
10312;DHT22;5201;48.776;9.128;2023-08-12T00:06:01;22.70;99.90
10312;DHT22;5201;48.776;9.128;2023-08-12T00:08:27;22.70;99.90
10312;DHT22;5201;48.776;9.128;2023-08-12T00:10:54;22.60;99.90
10312;DHT22;5201;48.776;9.128;2023-08-12T00:13:19;22.70;99.90
10312;DHT22;5201;48.776;9.128;2023-08-12T00:15:46;22.70;99.90
10312;DHT22;5201;48.776;9.128;2023-08-12T00:18:11;22.70;99.90
10312;DHT22;5201;48.776;9.128;2023-08-12T00:20:37;22.70;99.90
10312;DHT22;5201;48.776;9.128;2023-08-12T00:23:04;22.70;99.90
10312;DHT22;5201;48.776;9.128;2023-08-12T00:25:29;22.70;99.90
10312;DHT22;5201;48.776;9.128;2023-08-12T00:27:55;22.60;99.90
10312;DHT22;5201;48.776;9.128;2023-08-12T00:30:21;22.60;99.90
10312;DHT22;5201;48.776;9.128;2023-08-12T00:32:47;22.60;99.90
10312;DHT22;5201;48.776;9.128;2023-08-12T00:35:13;22.50;99.90
10312;DHT22;5201;48.776;9.128;2023-08-12T00:37:39;22.50;99.90
10312;DHT22;5201;48.776;9.128;2023-08-12T00:40:05;22.50;99.90
10312;DHT22;5201;48.776;9.128;2023-08-12T00:42:31;22.40;99.90
10312;DHT22;5201;48.776;9.128;2023-08-12T00:44:57;22.40;99.90
10312;DHT22;5201;48.776;9.128;2023-08-12T00:47:23;22.50;99.90
10312;DHT22;5201;48.776;9.128;2023-08-12T00:49:49;22.40;99.90
10312;DHT22;5201;48.776;9.128;2023-08-12T00:52:17;22.50;99.90
10312;DHT22;5201;48.776;9.128;2023-08-12T00:54:42;22.50;99.90
10312;DHT22;5201;48.776;9.128;2023-08-12T00:57:08;22.50;99.90
10312;DHT22;5201;48.776;9.128;2023-08-12T00:59:35;22.50;99.90
10312;DHT22;5201;48.776;9.128;2023-08-12T01:02:03;22.60;99.90
10312;DHT22;5201;48.776;9.128;2023-08-12T01:04:29;22.40;99.90
10312;DHT22;5201;48.776;9.128;2023-08-12T01:06:55;22.40;99.90
10312;DHT22;5201;48.776;9.128;2023-08-12T01:09:21;22.40;99.90
10312;DHT22;5201;48.776;9.128;2023-08-12T01:12:11;22.40;99.90
10312;DHT22;5201;48.776;9.128;2023-08-12T01:14:41;22.40;99.90
10312;DHT22;5201;48.776;9.128;2023-08-12T01:17:09;22.40;99.90
10312;DHT22;5201;48.776;9.128;2023-08-12T01:19:39;22.40;99.90
10312;DHT22;5201;48.776;9.128;2023-08-12T01:22:08;22.40;99.90
10312;DHT22;5201;48.776;9.128;2023-08-12T01:24:38;22.40;99.90
10312;DHT22;5201;48.776;9.128;2023-08-12T01:27:05;22.40;99.90
10312;DHT22;5201;48.776;9.128;2023-08-12T01:29:36;22.40;99.90
10312;DHT22;5201;48.776;9.128;2023-08-12T01:32:18;22.40;99.90
10312;DHT22;5201;48.776;9.128;2023-08-12T01:35:08;22.40;99.90
10312;DHT22;5201;48.776;9.128;2023-08-12T01:37:36;22.40;99.90
10312;DHT22;5201;48.776;9.128;2023-08-12T01:40:03;22.40;99.90
10312;DHT22;5201;48.776;9.128;2023-08-12T01:42:31;22.40;99.90
10312;DHT22;5201;48.776;9.128;2023-08-12T01:44:57;22.30;99.90
10312;DHT22;5201;48.776;9.128;2023-08-12T01:47:23;22.20;99.90
10312;DHT22;5201;48.776;9.128;2023-08-12T01:49:49;22.20;99.90
10312;DHT22;5201;48.776;9.128;2023-08-12T01:52:15;22.20;99.90
10312;DHT22;5201;48.776;9.128;2023-08-12T01:54:41;22.20;99.90
10312;DHT22;5201;48.776;9.128;2023-08-12T01:57:06;22.20;99.90
10312;DHT22;5201;48.776;9.128;2023-08-12T01:59:33;22.20;99.90
10312;DHT22;5201;48.776;9.128;2023-08-12T02:01:59;22.20;99.90
10312;DHT22;5201;48.776;9.128;2023-08-12T02:04:26;22.20;99.90
10312;DHT22;5201;48.776;9.128;2023-08-12T02:06:52;22.10;99.90
10312;DHT22;5201;48.776;9.128;2023-08-12T02:09:18;22.20;99.90
10312;DHT22;5201;48.776;9.128;2023-08-12T02:11:43;22.20;99.90
10312;DHT22;5201;48.776;9.128;2023-08-12T02:14:09;22.20;99.90
10312;DHT22;5201;48.776;9.128;2023-08-12T02:16:34;22.20;99.90
10312;DHT22;5201;48.776;9.128;2023-08-12T02:19:00;22.20;99.90
10312;DHT22;5201;48.776;9.128;2023-08-12T02:21:26;22.30;99.90
10312;DHT22;5201;48.776;9.128;2023-08-12T02:23:51;22.20;99.90
10312;DHT22;5201;48.776;9.128;2023-08-12T02:26:17;22.30;99.90
10312;DHT22;5201;48.776;9.128;2023-08-12T02:28:42;22.40;99.90
10312;DHT22;5201;48.776;9.128;2023-08-12T02:31:08;22.40;99.90
10312;DHT22;5201;48.776;9.128;2023-08-12T02:33:34;22.40;99.90
10312;DHT22;5201;48.776;9.128;2023-08-12T02:35:59;22.40;99.90
10312;DHT22;5201;48.776;9.128;2023-08-12T02:38:25;22.40;99.90
10312;DHT22;5201;48.776;9.128;2023-08-12T02:40:51;22.40;99.90
10312;DHT22;5201;48.776;9.128;2023-08-12T02:43:17;22.40;99.90
10312;DHT22;5201;48.776;9.128;2023-08-12T02:45:43;22.40;99.90
10312;DHT22;5201;48.776;9.128;2023-08-12T02:48:10;22.40;99.90
10312;DHT22;5201;48.776;9.128;2023-08-12T02:50:36;22.40;99.90
10312;DHT22;5201;48.776;9.128;2023-08-12T02:53:01;22.40;99.90
10312;DHT22;5201;48.776;9.128;2023-08-12T02:55:28;22.40;99.90
10312;DHT22;5201;48.776;9.128;2023-08-12T02:57:53;22.40;99.90
10312;DHT22;5201;48.776;9.128;2023-08-12T03:00:19;22.40;99.90
10312;DHT22;5201;48.776;9.128;2023-08-12T03:02:44;22.40;99.90
10312;DHT22;5201;48.776;9.128;2023-08-12T03:05:10;22.40;99.90
10312;DHT22;5201;48.776;9.128;2023-08-12T03:07:35;22.50;99.90
10312;DHT22;5201;48.776;9.128;2023-08-12T03:10:01;22.40;99.90
10312;DHT22;5201;48.776;9.128;2023-08-12T03:12:27;22.50;99.90
10312;DHT22;5201;48.776;9.128;2023-08-12T03:14:52;22.50;99.90
10312;DHT22;5201;48.776;9.128;2023-08-12T03:17:18;22.50;99.90
10312;DHT22;5201;48.776;9.128;2023-08-12T03:19:43;22.60;99.90
10312;DHT22;5201;48.776;9.128;2023-08-12T03:22:09;22.60;99.90
10312;DHT22;5201;48.776;9.128;2023-08-12T03:24:35;22.60;99.90
10312;DHT22;5201;48.776;9.128;2023-08-12T03:27:00;22.60;99.90
10312;DHT22;5201;48.776;9.128;2023-08-12T03:29:26;22.50;99.90
10312;DHT22;5201;48.776;9.128;2023-08-12T03:31:51;22.40;99.90
10312;DHT22;5201;48.776;9.128;2023-08-12T03:34:17;22.40;99.90
10312;DHT22;5201;48.776;9.128;2023-08-12T03:36:42;22.50;99.90
10312;DHT22;5201;48.776;9.128;2023-08-12T03:39:09;22.50;99.90
10312;DHT22;5201;48.776;9.128;2023-08-12T03:41:34;22.50;99.90
10312;DHT22;5201;48.776;9.128;2023-08-12T03:44:00;22.60;99.90
10312;DHT22;5201;48.776;9.128;2023-08-12T03:46:25;22.60;99.90
10312;DHT22;5201;48.776;9.128;2023-08-12T03:48:51;22.60;99.90
10312;DHT22;5201;48.776;9.128;2023-08-12T03:51:16;22.60;99.90
10312;DHT22;5201;48.776;9.128;2023-08-12T03:53:42;22.70;99.90
10312;DHT22;5201;48.776;9.128;2023-08-12T03:56:08;22.70;99.90
10312;DHT22;5201;48.776;9.128;2023-08-12T03:58:33;22.60;99.90
10312;DHT22;5201;48.776;9.128;2023-08-12T04:00:59;22.70;99.90
10312;DHT22;5201;48.776;9.128;2023-08-12T04:03:24;22.70;99.90
10312;DHT22;5201;48.776;9.128;2023-08-12T04:05:51;22.60;99.90
10312;DHT22;5201;48.776;9.128;2023-08-12T04:08:19;22.50;99.90
10312;DHT22;5201;48.776;9.128;2023-08-12T04:10:48;22.80;99.90
10312;DHT22;5201;48.776;9.128;2023-08-12T04:13:14;22.40;99.90
10312;DHT22;5201;48.776;9.128;2023-08-12T04:15:40;22.40;99.90
10312;DHT22;5201;48.776;9.128;2023-08-12T04:18:06;22.50;99.90
10312;DHT22;5201;48.776;9.128;2023-08-12T04:20:32;22.50;99.90
10312;DHT22;5201;48.776;9.128;2023-08-12T04:22:58;22.40;99.90
10312;DHT22;5201;48.776;9.128;2023-08-12T04:25:25;22.50;99.90
10312;DHT22;5201;48.776;9.128;2023-08-12T04:27:50;22.40;99.90
10312;DHT22;5201;48.776;9.128;2023-08-12T04:30:17;22.40;99.90
10312;DHT22;5201;48.776;9.128;2023-08-12T04:32:43;22.40;99.90
10312;DHT22;5201;48.776;9.128;2023-08-12T04:35:09;22.30;99.90
10312;DHT22;5201;48.776;9.128;2023-08-12T04:37:36;22.30;99.90
10312;DHT22;5201;48.776;9.128;2023-08-12T04:40:02;22.50;99.90
10312;DHT22;5201;48.776;9.128;2023-08-12T04:42:30;22.60;99.90
10312;DHT22;5201;48.776;9.128;2023-08-12T04:44:55;22.40;99.90
10312;DHT22;5201;48.776;9.128;2023-08-12T04:47:21;22.30;99.90
10312;DHT22;5201;48.776;9.128;2023-08-12T04:49:46;22.10;99.90
10312;DHT22;5201;48.776;9.128;2023-08-12T04:52:12;22.20;99.90
10312;DHT22;5201;48.776;9.128;2023-08-12T04:54:38;22.30;99.90
10312;DHT22;5201;48.776;9.128;2023-08-12T04:57:03;22.20;99.90
10312;DHT22;5201;48.776;9.128;2023-08-12T04:59:29;22.10;99.90
10312;DHT22;5201;48.776;9.128;2023-08-12T05:01:56;22.10;99.90
10312;DHT22;5201;48.776;9.128;2023-08-12T05:04:21;22.20;99.90
10312;DHT22;5201;48.776;9.128;2023-08-12T05:06:47;22.20;99.90
10312;DHT22;5201;48.776;9.128;2023-08-12T05:09:14;22.20;99.90
10312;DHT22;5201;48.776;9.128;2023-08-12T05:11:39;22.20;99.90
10312;DHT22;5201;48.776;9.128;2023-08-12T05:14:05;22.30;99.90
10312;DHT22;5201;48.776;9.128;2023-08-12T05:16:30;22.40;99.90
10312;DHT22;5201;48.776;9.128;2023-08-12T05:18:56;22.40;99.90
10312;DHT22;5201;48.776;9.128;2023-08-12T05:21:21;22.20;99.90
10312;DHT22;5201;48.776;9.128;2023-08-12T05:23:48;22.20;99.90
10312;DHT22;5201;48.776;9.128;2023-08-12T05:26:13;22.20;99.90
10312;DHT22;5201;48.776;9.128;2023-08-12T05:28:39;22.10;99.90
10312;DHT22;5201;48.776;9.128;2023-08-12T05:31:04;21.90;99.90
10312;DHT22;5201;48.776;9.128;2023-08-12T05:33:30;21.90;99.90
10312;DHT22;5201;48.776;9.128;2023-08-12T05:35:56;22.00;99.90
10312;DHT22;5201;48.776;9.128;2023-08-12T05:38:21;22.10;99.90
10312;DHT22;5201;48.776;9.128;2023-08-12T05:40:47;22.10;99.90
10312;DHT22;5201;48.776;9.128;2023-08-12T05:43:12;22.20;99.90
10312;DHT22;5201;48.776;9.128;2023-08-12T05:45:38;22.00;99.90
10312;DHT22;5201;48.776;9.128;2023-08-12T05:48:04;21.80;99.90
10312;DHT22;5201;48.776;9.128;2023-08-12T05:50:29;21.70;99.90
10312;DHT22;5201;48.776;9.128;2023-08-12T05:52:55;21.90;99.90
10312;DHT22;5201;48.776;9.128;2023-08-12T05:55:21;21.60;99.90
10312;DHT22;5201;48.776;9.128;2023-08-12T05:57:46;21.50;99.90
10312;DHT22;5201;48.776;9.128;2023-08-12T06:00:12;21.30;99.90
10312;DHT22;5201;48.776;9.128;2023-08-12T06:02:38;21.40;99.90
10312;DHT22;5201;48.776;9.128;2023-08-12T06:05:04;21.60;99.90
10312;DHT22;5201;48.776;9.128;2023-08-12T06:07:30;21.80;99.90
10312;DHT22;5201;48.776;9.128;2023-08-12T06:09:55;21.90;99.90
10312;DHT22;5201;48.776;9.128;2023-08-12T06:12:21;22.00;99.90
10312;DHT22;5201;48.776;9.128;2023-08-12T06:14:46;22.10;99.90
10312;DHT22;5201;48.776;9.128;2023-08-12T06:17:12;22.20;99.90
10312;DHT22;5201;48.776;9.128;2023-08-12T06:19:37;21.90;99.90
10312;DHT22;5201;48.776;9.128;2023-08-12T06:22:03;21.60;99.90
10312;DHT22;5201;48.776;9.128;2023-08-12T06:24:29;21.40;99.90
10312;DHT22;5201;48.776;9.128;2023-08-12T06:26:54;21.30;99.90
10312;DHT22;5201;48.776;9.128;2023-08-12T06:29:20;21.30;99.90
10312;DHT22;5201;48.776;9.128;2023-08-12T06:31:45;21.60;99.90
10312;DHT22;5201;48.776;9.128;2023-08-12T06:34:11;21.80;99.90
10312;DHT22;5201;48.776;9.128;2023-08-12T06:36:37;22.30;99.90
10312;DHT22;5201;48.776;9.128;2023-08-12T06:39:02;22.20;99.90
10312;DHT22;5201;48.776;9.128;2023-08-12T06:41:29;22.40;99.90
10312;DHT22;5201;48.776;9.128;2023-08-12T06:43:54;22.50;99.90
10312;DHT22;5201;48.776;9.128;2023-08-12T06:46:20;22.60;99.90
10312;DHT22;5201;48.776;9.128;2023-08-12T06:48:45;22.60;99.90
10312;DHT22;5201;48.776;9.128;2023-08-12T06:51:11;22.60;99.90
10312;DHT22;5201;48.776;9.128;2023-08-12T06:53:38;22.90;99.90
10312;DHT22;5201;48.776;9.128;2023-08-12T06:56:03;23.30;99.90
10312;DHT22;5201;48.776;9.128;2023-08-12T06:58:29;23.60;99.90
10312;DHT22;5201;48.776;9.128;2023-08-12T07:00:55;23.80;99.90
10312;DHT22;5201;48.776;9.128;2023-08-12T07:03:21;23.90;99.90
10312;DHT22;5201;48.776;9.128;2023-08-12T07:05:47;23.80;99.90
10312;DHT22;5201;48.776;9.128;2023-08-12T07:08:12;23.90;99.90
10312;DHT22;5201;48.776;9.128;2023-08-12T07:10:39;24.00;99.90
10312;DHT22;5201;48.776;9.128;2023-08-12T07:13:04;24.20;99.90
10312;DHT22;5201;48.776;9.128;2023-08-12T07:15:30;24.50;99.90
10312;DHT22;5201;48.776;9.128;2023-08-12T07:17:55;24.70;99.90
10312;DHT22;5201;48.776;9.128;2023-08-12T07:20:23;24.80;99.90
10312;DHT22;5201;48.776;9.128;2023-08-12T07:22:49;24.90;99.90
10312;DHT22;5201;48.776;9.128;2023-08-12T07:25:15;24.80;99.90
10312;DHT22;5201;48.776;9.128;2023-08-12T07:27:40;24.90;99.90
10312;DHT22;5201;48.776;9.128;2023-08-12T07:30:07;25.20;99.90
10312;DHT22;5201;48.776;9.128;2023-08-12T07:32:33;25.40;99.90
10312;DHT22;5201;48.776;9.128;2023-08-12T07:34:59;25.60;99.90
10312;DHT22;5201;48.776;9.128;2023-08-12T07:37:25;25.80;99.90
10312;DHT22;5201;48.776;9.128;2023-08-12T07:39:51;26.00;99.90
10312;DHT22;5201;48.776;9.128;2023-08-12T07:42:16;26.10;99.90
10312;DHT22;5201;48.776;9.128;2023-08-12T07:44:42;26.10;99.90
10312;DHT22;5201;48.776;9.128;2023-08-12T07:47:08;26.30;99.90
10312;DHT22;5201;48.776;9.128;2023-08-12T07:49:34;26.50;99.90
10312;DHT22;5201;48.776;9.128;2023-08-12T07:52:00;26.60;99.90
10312;DHT22;5201;48.776;9.128;2023-08-12T07:54:26;26.60;99.90
10312;DHT22;5201;48.776;9.128;2023-08-12T07:56:52;26.70;99.90
10312;DHT22;5201;48.776;9.128;2023-08-12T07:59:19;26.80;99.90
10312;DHT22;5201;48.776;9.128;2023-08-12T08:01:45;27.00;99.90
10312;DHT22;5201;48.776;9.128;2023-08-12T08:04:10;27.00;99.90
10312;DHT22;5201;48.776;9.128;2023-08-12T08:06:36;27.00;99.90
10312;DHT22;5201;48.776;9.128;2023-08-12T08:09:02;27.10;99.90
10312;DHT22;5201;48.776;9.128;2023-08-12T08:11:30;27.20;99.90
10312;DHT22;5201;48.776;9.128;2023-08-12T08:13:55;27.20;99.90
10312;DHT22;5201;48.776;9.128;2023-08-12T08:16:22;27.30;99.90
10312;DHT22;5201;48.776;9.128;2023-08-12T08:18:47;27.40;99.90
10312;DHT22;5201;48.776;9.128;2023-08-12T08:21:13;27.60;99.90
10312;DHT22;5201;48.776;9.128;2023-08-12T08:23:40;27.80;99.90
10312;DHT22;5201;48.776;9.128;2023-08-12T08:26:06;27.80;99.90
10312;DHT22;5201;48.776;9.128;2023-08-12T08:28:32;27.60;99.90
10312;DHT22;5201;48.776;9.128;2023-08-12T08:30:57;27.50;99.90
10312;DHT22;5201;48.776;9.128;2023-08-12T08:33:24;27.60;99.90
10312;DHT22;5201;48.776;9.128;2023-08-12T08:35:50;27.80;99.90
10312;DHT22;5201;48.776;9.128;2023-08-12T08:38:15;27.90;99.90
10312;DHT22;5201;48.776;9.128;2023-08-12T08:40:42;28.10;99.90
10312;DHT22;5201;48.776;9.128;2023-08-12T08:43:08;28.20;99.90
10312;DHT22;5201;48.776;9.128;2023-08-12T08:45:34;28.30;99.90
10312;DHT22;5201;48.776;9.128;2023-08-12T08:48:01;28.30;99.90
10312;DHT22;5201;48.776;9.128;2023-08-12T08:50:30;28.20;99.90
10312;DHT22;5201;48.776;9.128;2023-08-12T08:52:57;28.20;99.90
10312;DHT22;5201;48.776;9.128;2023-08-12T08:55:23;28.30;99.90
10312;DHT22;5201;48.776;9.128;2023-08-12T08:57:49;28.60;99.90
10312;DHT22;5201;48.776;9.128;2023-08-12T09:00:18;28.80;99.90
10312;DHT22;5201;48.776;9.128;2023-08-12T09:02:47;29.00;99.90
10312;DHT22;5201;48.776;9.128;2023-08-12T09:05:15;29.20;99.90
10312;DHT22;5201;48.776;9.128;2023-08-12T09:07:41;29.40;99.90
10312;DHT22;5201;48.776;9.128;2023-08-12T09:10:08;29.60;99.90
10312;DHT22;5201;48.776;9.128;2023-08-12T09:12:34;29.80;99.90
10312;DHT22;5201;48.776;9.128;2023-08-12T09:15:02;29.90;99.90
10312;DHT22;5201;48.776;9.128;2023-08-12T09:17:27;30.10;99.90
10312;DHT22;5201;48.776;9.128;2023-08-12T09:19:53;30.20;99.90
10312;DHT22;5201;48.776;9.128;2023-08-12T09:22:19;30.40;99.90
10312;DHT22;5201;48.776;9.128;2023-08-12T09:24:44;30.40;99.90
10312;DHT22;5201;48.776;9.128;2023-08-12T09:27:10;30.50;99.90
10312;DHT22;5201;48.776;9.128;2023-08-12T09:29:36;30.60;99.90
10312;DHT22;5201;48.776;9.128;2023-08-12T09:32:12;30.80;99.90
10312;DHT22;5201;48.776;9.128;2023-08-12T09:34:48;30.90;99.90
10312;DHT22;5201;48.776;9.128;2023-08-12T09:37:14;31.00;99.90
10312;DHT22;5201;48.776;9.128;2023-08-12T09:39:41;30.90;99.90
10312;DHT22;5201;48.776;9.128;2023-08-12T09:42:06;31.00;99.90
10312;DHT22;5201;48.776;9.128;2023-08-12T09:44:37;31.10;99.90
10312;DHT22;5201;48.776;9.128;2023-08-12T09:47:03;31.30;99.90
10312;DHT22;5201;48.776;9.128;2023-08-12T09:49:29;31.20;99.80
10312;DHT22;5201;48.776;9.128;2023-08-12T09:51:55;30.90;99.90
10312;DHT22;5201;48.776;9.128;2023-08-12T09:54:21;30.70;99.90
10312;DHT22;5201;48.776;9.128;2023-08-12T09:56:48;30.70;99.90
10312;DHT22;5201;48.776;9.128;2023-08-12T09:59:20;30.60;99.90
10312;DHT22;5201;48.776;9.128;2023-08-12T10:01:49;30.50;99.90
10312;DHT22;5201;48.776;9.128;2023-08-12T10:04:17;29.90;99.90
10312;DHT22;5201;48.776;9.128;2023-08-12T10:06:47;29.30;99.90
10312;DHT22;5201;48.776;9.128;2023-08-12T10:09:15;28.50;99.90
10312;DHT22;5201;48.776;9.128;2023-08-12T10:11:42;28.30;99.90
10312;DHT22;5201;48.776;9.128;2023-08-12T10:14:10;28.30;99.90
10312;DHT22;5201;48.776;9.128;2023-08-12T10:16:36;28.30;99.90
10312;DHT22;5201;48.776;9.128;2023-08-12T10:19:03;28.30;99.90
10312;DHT22;5201;48.776;9.128;2023-08-12T10:21:29;28.30;99.90
10312;DHT22;5201;48.776;9.128;2023-08-12T10:23:57;28.30;99.90
10312;DHT22;5201;48.776;9.128;2023-08-12T10:26:24;28.40;99.90
10312;DHT22;5201;48.776;9.128;2023-08-12T10:28:50;28.40;99.90
10312;DHT22;5201;48.776;9.128;2023-08-12T10:31:16;28.50;99.90
10312;DHT22;5201;48.776;9.128;2023-08-12T10:33:42;28.70;99.90
10312;DHT22;5201;48.776;9.128;2023-08-12T10:36:08;28.90;99.90
10312;DHT22;5201;48.776;9.128;2023-08-12T10:38:34;29.20;99.90
10312;DHT22;5201;48.776;9.128;2023-08-12T10:41:20;29.50;99.90
10312;DHT22;5201;48.776;9.128;2023-08-12T10:44:00;29.80;99.90
10312;DHT22;5201;48.776;9.128;2023-08-12T10:46:36;30.10;99.90
10312;DHT22;5201;48.776;9.128;2023-08-12T10:49:05;30.00;99.90
10312;DHT22;5201;48.776;9.128;2023-08-12T10:51:45;29.90;99.90
10312;DHT22;5201;48.776;9.128;2023-08-12T10:54:31;29.90;99.90
10312;DHT22;5201;48.776;9.128;2023-08-12T11:02:30;30.20;99.90
10312;DHT22;5201;48.776;9.128;2023-08-12T11:05:00;30.20;99.90
10312;DHT22;5201;48.776;9.128;2023-08-12T11:07:33;30.10;99.90
10312;DHT22;5201;48.776;9.128;2023-08-12T11:10:11;29.90;99.90
10312;DHT22;5201;48.776;9.128;2023-08-12T11:12:38;29.90;99.90
10312;DHT22;5201;48.776;9.128;2023-08-12T11:15:05;30.20;99.90
10312;DHT22;5201;48.776;9.128;2023-08-12T11:17:38;30.40;99.90
10312;DHT22;5201;48.776;9.128;2023-08-12T11:20:09;30.40;99.90
10312;DHT22;5201;48.776;9.128;2023-08-12T11:22:43;30.10;99.90
10312;DHT22;5201;48.776;9.128;2023-08-12T11:25:10;29.90;99.90
10312;DHT22;5201;48.776;9.128;2023-08-12T11:27:44;29.60;99.90
10312;DHT22;5201;48.776;9.128;2023-08-12T11:30:12;29.70;99.90
10312;DHT22;5201;48.776;9.128;2023-08-12T11:32:41;29.70;99.90
10312;DHT22;5201;48.776;9.128;2023-08-12T11:35:08;29.80;99.90
10312;DHT22;5201;48.776;9.128;2023-08-12T11:37:38;30.10;99.90
10312;DHT22;5201;48.776;9.128;2023-08-12T11:40:05;30.50;99.90
10312;DHT22;5201;48.776;9.128;2023-08-12T11:42:31;30.90;99.90
10312;DHT22;5201;48.776;9.128;2023-08-12T11:44:57;31.00;99.90
10312;DHT22;5201;48.776;9.128;2023-08-12T11:47:23;30.80;99.90
10312;DHT22;5201;48.776;9.128;2023-08-12T11:49:49;30.50;99.90
10312;DHT22;5201;48.776;9.128;2023-08-12T11:52:15;30.60;99.90
10312;DHT22;5201;48.776;9.128;2023-08-12T11:54:41;30.90;99.90
10312;DHT22;5201;48.776;9.128;2023-08-12T11:57:06;31.00;99.90
10312;DHT22;5201;48.776;9.128;2023-08-12T11:59:32;31.10;99.90
10312;DHT22;5201;48.776;9.128;2023-08-12T12:02:00;31.20;99.90
10312;DHT22;5201;48.776;9.128;2023-08-12T12:04:26;31.10;99.90
10312;DHT22;5201;48.776;9.128;2023-08-12T12:06:52;31.30;99.90
10312;DHT22;5201;48.776;9.128;2023-08-12T12:09:18;31.20;99.90
10312;DHT22;5201;48.776;9.128;2023-08-12T12:11:44;30.80;99.90
10312;DHT22;5201;48.776;9.128;2023-08-12T12:14:10;30.10;99.90
10312;DHT22;5201;48.776;9.128;2023-08-12T12:16:44;29.40;99.90
10312;DHT22;5201;48.776;9.128;2023-08-12T12:21:40;28.50;99.90
10312;DHT22;5201;48.776;9.128;2023-08-12T12:24:07;28.20;99.90
10312;DHT22;5201;48.776;9.128;2023-08-12T12:26:33;27.90;99.90
10312;DHT22;5201;48.776;9.128;2023-08-12T12:28:59;27.70;99.90
10312;DHT22;5201;48.776;9.128;2023-08-12T12:31:25;27.40;99.90
10312;DHT22;5201;48.776;9.128;2023-08-12T12:33:50;26.90;99.90
10312;DHT22;5201;48.776;9.128;2023-08-12T12:36:16;26.50;99.90
10312;DHT22;5201;48.776;9.128;2023-08-12T12:38:43;26.30;99.90
10312;DHT22;5201;48.776;9.128;2023-08-12T12:41:08;26.10;99.90
10312;DHT22;5201;48.776;9.128;2023-08-12T12:43:34;26.00;99.90
10312;DHT22;5201;48.776;9.128;2023-08-12T12:46:00;25.90;99.90
10312;DHT22;5201;48.776;9.128;2023-08-12T12:48:25;25.80;99.90
10312;DHT22;5201;48.776;9.128;2023-08-12T12:50:51;25.70;99.90
10312;DHT22;5201;48.776;9.128;2023-08-12T12:53:16;25.70;99.90
10312;DHT22;5201;48.776;9.128;2023-08-12T12:55:42;25.60;99.90
10312;DHT22;5201;48.776;9.128;2023-08-12T12:58:08;25.50;99.90
10312;DHT22;5201;48.776;9.128;2023-08-12T13:00:34;25.40;99.90
10312;DHT22;5201;48.776;9.128;2023-08-12T13:03:00;25.40;99.90
10312;DHT22;5201;48.776;9.128;2023-08-12T13:05:25;25.40;99.90
10312;DHT22;5201;48.776;9.128;2023-08-12T13:07:51;25.40;99.90
10312;DHT22;5201;48.776;9.128;2023-08-12T13:10:17;25.40;99.90
10312;DHT22;5201;48.776;9.128;2023-08-12T13:12:42;25.00;99.90
10312;DHT22;5201;48.776;9.128;2023-08-12T13:15:08;24.90;99.90
10312;DHT22;5201;48.776;9.128;2023-08-12T13:17:34;24.80;99.90
10312;DHT22;5201;48.776;9.128;2023-08-12T13:19:59;24.80;99.90
10312;DHT22;5201;48.776;9.128;2023-08-12T13:22:25;25.00;99.90
10312;DHT22;5201;48.776;9.128;2023-08-12T13:24:50;25.00;99.90
10312;DHT22;5201;48.776;9.128;2023-08-12T13:27:16;25.10;99.90
10312;DHT22;5201;48.776;9.128;2023-08-12T13:29:42;25.10;99.90
10312;DHT22;5201;48.776;9.128;2023-08-12T13:32:08;25.20;99.90
10312;DHT22;5201;48.776;9.128;2023-08-12T13:34:34;25.20;99.90
10312;DHT22;5201;48.776;9.128;2023-08-12T13:36:59;25.20;99.90
10312;DHT22;5201;48.776;9.128;2023-08-12T13:39:25;25.30;99.90
10312;DHT22;5201;48.776;9.128;2023-08-12T13:41:51;25.20;99.90
10312;DHT22;5201;48.776;9.128;2023-08-12T13:44:16;25.20;99.90
10312;DHT22;5201;48.776;9.128;2023-08-12T13:46:42;25.20;99.90
10312;DHT22;5201;48.776;9.128;2023-08-12T13:49:07;25.40;99.90
10312;DHT22;5201;48.776;9.128;2023-08-12T13:51:33;25.50;99.90
10312;DHT22;5201;48.776;9.128;2023-08-12T13:53:58;25.70;99.90
10312;DHT22;5201;48.776;9.128;2023-08-12T13:56:24;25.80;99.90
10312;DHT22;5201;48.776;9.128;2023-08-12T13:58:50;25.70;99.90
10312;DHT22;5201;48.776;9.128;2023-08-12T14:01:15;25.70;99.90
10312;DHT22;5201;48.776;9.128;2023-08-12T14:03:41;25.70;99.90
10312;DHT22;5201;48.776;9.128;2023-08-12T14:06:06;25.70;99.90
10312;DHT22;5201;48.776;9.128;2023-08-12T14:08:32;25.50;99.90
10312;DHT22;5201;48.776;9.128;2023-08-12T14:10:57;25.60;99.90
10312;DHT22;5201;48.776;9.128;2023-08-12T14:13:23;25.70;99.90
10312;DHT22;5201;48.776;9.128;2023-08-12T14:15:48;25.90;99.90
10312;DHT22;5201;48.776;9.128;2023-08-12T14:18:14;25.90;99.90
10312;DHT22;5201;48.776;9.128;2023-08-12T14:20:40;26.00;99.90
10312;DHT22;5201;48.776;9.128;2023-08-12T14:23:05;26.00;99.90
10312;DHT22;5201;48.776;9.128;2023-08-12T14:25:31;26.10;99.90
10312;DHT22;5201;48.776;9.128;2023-08-12T14:27:56;26.20;99.90
10312;DHT22;5201;48.776;9.128;2023-08-12T14:30:25;26.20;99.90
10312;DHT22;5201;48.776;9.128;2023-08-12T14:32:52;26.20;99.90
10312;DHT22;5201;48.776;9.128;2023-08-12T14:35:17;26.20;99.90
10312;DHT22;5201;48.776;9.128;2023-08-12T14:37:43;26.10;99.90
10312;DHT22;5201;48.776;9.128;2023-08-12T14:40:09;26.00;99.90
10312;DHT22;5201;48.776;9.128;2023-08-12T14:42:35;26.00;99.90
10312;DHT22;5201;48.776;9.128;2023-08-12T14:45:01;26.10;99.90
10312;DHT22;5201;48.776;9.128;2023-08-12T14:47:27;26.10;99.90
10312;DHT22;5201;48.776;9.128;2023-08-12T14:49:52;26.20;99.90
10312;DHT22;5201;48.776;9.128;2023-08-12T14:52:21;26.20;99.90
10312;DHT22;5201;48.776;9.128;2023-08-12T14:54:48;26.30;99.90
10312;DHT22;5201;48.776;9.128;2023-08-12T14:57:14;26.30;99.90
10312;DHT22;5201;48.776;9.128;2023-08-12T14:59:40;26.40;99.90
10312;DHT22;5201;48.776;9.128;2023-08-12T15:02:06;26.50;99.90
10312;DHT22;5201;48.776;9.128;2023-08-12T15:04:32;26.50;99.90
10312;DHT22;5201;48.776;9.128;2023-08-12T15:06:58;26.50;99.90
10312;DHT22;5201;48.776;9.128;2023-08-12T15:09:24;26.50;99.90
10312;DHT22;5201;48.776;9.128;2023-08-12T15:11:49;26.60;99.90
10312;DHT22;5201;48.776;9.128;2023-08-12T15:14:17;26.60;99.90
10312;DHT22;5201;48.776;9.128;2023-08-12T15:16:42;26.50;99.90
10312;DHT22;5201;48.776;9.128;2023-08-12T15:19:08;26.30;99.90
10312;DHT22;5201;48.776;9.128;2023-08-12T15:21:33;26.30;99.90
10312;DHT22;5201;48.776;9.128;2023-08-12T15:23:59;26.20;99.90
10312;DHT22;5201;48.776;9.128;2023-08-12T15:26:25;26.30;99.90
10312;DHT22;5201;48.776;9.128;2023-08-12T15:28:50;26.30;99.90
10312;DHT22;5201;48.776;9.128;2023-08-12T15:31:16;26.40;99.90
10312;DHT22;5201;48.776;9.128;2023-08-12T15:33:42;26.30;99.90
10312;DHT22;5201;48.776;9.128;2023-08-12T15:36:07;26.40;99.90
10312;DHT22;5201;48.776;9.128;2023-08-12T15:38:33;26.40;99.90
10312;DHT22;5201;48.776;9.128;2023-08-12T15:40:59;26.40;99.90
10312;DHT22;5201;48.776;9.128;2023-08-12T15:43:25;26.30;99.90
10312;DHT22;5201;48.776;9.128;2023-08-12T15:45:51;26.30;99.90
10312;DHT22;5201;48.776;9.128;2023-08-12T15:48:17;26.30;99.90